sensor_id;sensor_type;location;lat;lon;timestamp;P1;durP1;ratioP1;P2;durP2;ratioP2
75689;SDS011;64303;53.118;9.044;2023-11-21T00:00:27;31.27;;;11.98;;
75689;SDS011;64303;53.118;9.044;2023-11-21T00:03:14;24.50;;;11.57;;
75689;SDS011;64303;53.118;9.044;2023-11-21T00:05:42;23.60;;;11.30;;
75689;SDS011;64303;53.118;9.044;2023-11-21T00:08:09;26.08;;;11.85;;
75689;SDS011;64303;53.118;9.044;2023-11-21T00:10:35;24.50;;;10.95;;
75689;SDS011;64303;53.118;9.044;2023-11-21T00:13:04;35.35;;;12.85;;
75689;SDS011;64303;53.118;9.044;2023-11-21T00:15:30;30.10;;;12.60;;
75689;SDS011;64303;53.118;9.044;2023-11-21T00:17:57;24.25;;;12.05;;
75689;SDS011;64303;53.118;9.044;2023-11-21T00:20:24;20.55;;;12.98;;
75689;SDS011;64303;53.118;9.044;2023-11-21T00:22:52;26.30;;;11.82;;
75689;SDS011;64303;53.118;9.044;2023-11-21T00:25:19;20.90;;;11.85;;
75689;SDS011;64303;53.118;9.044;2023-11-21T00:27:46;18.48;;;12.02;;
75689;SDS011;64303;53.118;9.044;2023-11-21T00:30:13;21.92;;;10.68;;
75689;SDS011;64303;53.118;9.044;2023-11-21T00:32:40;22.95;;;10.93;;
75689;SDS011;64303;53.118;9.044;2023-11-21T00:35:07;19.77;;;10.60;;
75689;SDS011;64303;53.118;9.044;2023-11-21T00:37:34;20.35;;;10.60;;
75689;SDS011;64303;53.118;9.044;2023-11-21T00:40:02;26.13;;;11.20;;
75689;SDS011;64303;53.118;9.044;2023-11-21T00:42:33;21.30;;;10.13;;
75689;SDS011;64303;53.118;9.044;2023-11-21T00:45:00;27.98;;;10.90;;
75689;SDS011;64303;53.118;9.044;2023-11-21T00:47:27;31.50;;;11.43;;
75689;SDS011;64303;53.118;9.044;2023-11-21T00:49:53;23.75;;;10.30;;
75689;SDS011;64303;53.118;9.044;2023-11-21T00:52:20;23.60;;;10.82;;
75689;SDS011;64303;53.118;9.044;2023-11-21T00:54:47;31.08;;;11.88;;
75689;SDS011;64303;53.118;9.044;2023-11-21T00:57:16;28.75;;;13.35;;
75689;SDS011;64303;53.118;9.044;2023-11-21T00:59:42;18.60;;;11.82;;
75689;SDS011;64303;53.118;9.044;2023-11-21T01:02:09;18.35;;;11.38;;
75689;SDS011;64303;53.118;9.044;2023-11-21T01:04:36;23.88;;;10.38;;
75689;SDS011;64303;53.118;9.044;2023-11-21T01:07:03;25.65;;;10.75;;
75689;SDS011;64303;53.118;9.044;2023-11-21T01:09:30;25.58;;;13.85;;
75689;SDS011;64303;53.118;9.044;2023-11-21T01:11:57;21.50;;;12.40;;
75689;SDS011;64303;53.118;9.044;2023-11-21T01:14:26;22.63;;;11.13;;
75689;SDS011;64303;53.118;9.044;2023-11-21T01:16:53;22.08;;;11.55;;
75689;SDS011;64303;53.118;9.044;2023-11-21T01:19:20;19.00;;;11.63;;
75689;SDS011;64303;53.118;9.044;2023-11-21T01:21:47;19.15;;;12.50;;
75689;SDS011;64303;53.118;9.044;2023-11-21T01:24:14;21.85;;;10.35;;
75689;SDS011;64303;53.118;9.044;2023-11-21T01:26:42;17.40;;;9.57;;
75689;SDS011;64303;53.118;9.044;2023-11-21T01:29:08;20.98;;;10.00;;
75689;SDS011;64303;53.118;9.044;2023-11-21T01:31:36;25.85;;;10.68;;
75689;SDS011;64303;53.118;9.044;2023-11-21T01:34:03;21.70;;;10.18;;
75689;SDS011;64303;53.118;9.044;2023-11-21T01:36:30;18.58;;;10.23;;
75689;SDS011;64303;53.118;9.044;2023-11-21T01:38:58;17.17;;;10.40;;
75689;SDS011;64303;53.118;9.044;2023-11-21T01:41:25;18.65;;;11.27;;
75689;SDS011;64303;53.118;9.044;2023-11-21T01:43:53;20.05;;;11.45;;
75689;SDS011;64303;53.118;9.044;2023-11-21T01:46:20;20.70;;;13.07;;
75689;SDS011;64303;53.118;9.044;2023-11-21T01:48:49;22.65;;;16.23;;
75689;SDS011;64303;53.118;9.044;2023-11-21T01:51:16;24.88;;;15.45;;
75689;SDS011;64303;53.118;9.044;2023-11-21T01:53:44;24.85;;;13.77;;
75689;SDS011;64303;53.118;9.044;2023-11-21T01:56:12;24.30;;;12.20;;
75689;SDS011;64303;53.118;9.044;2023-11-21T01:58:39;20.23;;;11.38;;
75689;SDS011;64303;53.118;9.044;2023-11-21T02:01:06;25.17;;;13.27;;
75689;SDS011;64303;53.118;9.044;2023-11-21T02:03:33;20.33;;;12.50;;
75689;SDS011;64303;53.118;9.044;2023-11-21T02:06:01;24.73;;;15.27;;
75689;SDS011;64303;53.118;9.044;2023-11-21T02:08:28;24.90;;;13.32;;
75689;SDS011;64303;53.118;9.044;2023-11-21T02:10:55;27.27;;;13.18;;
75689;SDS011;64303;53.118;9.044;2023-11-21T02:13:22;24.48;;;14.68;;
75689;SDS011;64303;53.118;9.044;2023-11-21T02:15:49;22.90;;;12.90;;
75689;SDS011;64303;53.118;9.044;2023-11-21T02:18:18;25.08;;;14.13;;
75689;SDS011;64303;53.118;9.044;2023-11-21T02:20:45;20.58;;;13.57;;
75689;SDS011;64303;53.118;9.044;2023-11-21T02:23:13;24.25;;;12.93;;
75689;SDS011;64303;53.118;9.044;2023-11-21T02:25:40;24.42;;;15.23;;
75689;SDS011;64303;53.118;9.044;2023-11-21T02:28:07;23.10;;;14.10;;
75689;SDS011;64303;53.118;9.044;2023-11-21T02:30:35;25.20;;;14.13;;
75689;SDS011;64303;53.118;9.044;2023-11-21T02:33:02;25.85;;;13.93;;
75689;SDS011;64303;53.118;9.044;2023-11-21T02:35:30;19.83;;;11.95;;
75689;SDS011;64303;53.118;9.044;2023-11-21T02:37:57;19.70;;;13.52;;
75689;SDS011;64303;53.118;9.044;2023-11-21T02:40:25;20.05;;;11.65;;
75689;SDS011;64303;53.118;9.044;2023-11-21T02:45:19;14.38;;;10.70;;
75689;SDS011;64303;53.118;9.044;2023-11-21T02:47:47;17.73;;;9.93;;
75689;SDS011;64303;53.118;9.044;2023-11-21T02:50:14;18.17;;;12.32;;
75689;SDS011;64303;53.118;9.044;2023-11-21T02:52:41;18.30;;;10.07;;
75689;SDS011;64303;53.118;9.044;2023-11-21T02:55:08;23.45;;;14.13;;
75689;SDS011;64303;53.118;9.044;2023-11-21T02:57:36;17.60;;;10.93;;
75689;SDS011;64303;53.118;9.044;2023-11-21T03:00:04;20.77;;;11.07;;
75689;SDS011;64303;53.118;9.044;2023-11-21T03:02:33;24.70;;;13.48;;
75689;SDS011;64303;53.118;9.044;2023-11-21T03:05:02;21.38;;;11.80;;
75689;SDS011;64303;53.118;9.044;2023-11-21T03:07:30;19.75;;;12.25;;
75689;SDS011;64303;53.118;9.044;2023-11-21T03:09:57;30.90;;;14.13;;
75689;SDS011;64303;53.118;9.044;2023-11-21T03:12:24;31.70;;;14.98;;
75689;SDS011;64303;53.118;9.044;2023-11-21T03:14:52;32.10;;;14.73;;
75689;SDS011;64303;53.118;9.044;2023-11-21T03:17:20;31.38;;;13.50;;
75689;SDS011;64303;53.118;9.044;2023-11-21T03:19:47;42.50;;;19.00;;
75689;SDS011;64303;53.118;9.044;2023-11-21T03:22:14;32.63;;;16.77;;
75689;SDS011;64303;53.118;9.044;2023-11-21T03:24:41;28.30;;;14.43;;
75689;SDS011;64303;53.118;9.044;2023-11-21T03:27:07;37.08;;;16.52;;
75689;SDS011;64303;53.118;9.044;2023-11-21T03:29:34;29.70;;;18.50;;
75689;SDS011;64303;53.118;9.044;2023-11-21T03:32:02;31.25;;;16.63;;
75689;SDS011;64303;53.118;9.044;2023-11-21T03:34:29;26.67;;;15.73;;
75689;SDS011;64303;53.118;9.044;2023-11-21T03:36:56;23.35;;;12.90;;
75689;SDS011;64303;53.118;9.044;2023-11-21T03:39:22;30.88;;;15.45;;
75689;SDS011;64303;53.118;9.044;2023-11-21T03:45:57;30.10;;;15.60;;
75689;SDS011;64303;53.118;9.044;2023-11-21T03:48:28;28.25;;;16.13;;
75689;SDS011;64303;53.118;9.044;2023-11-21T03:50:54;23.42;;;15.45;;
75689;SDS011;64303;53.118;9.044;2023-11-21T03:53:21;22.80;;;12.45;;
75689;SDS011;64303;53.118;9.044;2023-11-21T03:55:48;21.02;;;14.07;;
75689;SDS011;64303;53.118;9.044;2023-11-21T03:58:15;25.92;;;16.17;;
75689;SDS011;64303;53.118;9.044;2023-11-21T04:00:42;24.60;;;14.48;;
75689;SDS011;64303;53.118;9.044;2023-11-21T04:03:09;23.95;;;13.70;;
75689;SDS011;64303;53.118;9.044;2023-11-21T04:05:36;24.05;;;12.52;;
75689;SDS011;64303;53.118;9.044;2023-11-21T04:15:23;13.90;;;8.15;;
75689;SDS011;64303;53.118;9.044;2023-11-21T04:17:50;17.55;;;9.02;;
75689;SDS011;64303;53.118;9.044;2023-11-21T04:20:17;17.83;;;10.65;;
75689;SDS011;64303;53.118;9.044;2023-11-21T04:22:45;16.23;;;9.98;;
75689;SDS011;64303;53.118;9.044;2023-11-21T04:27:40;18.15;;;9.65;;
75689;SDS011;64303;53.118;9.044;2023-11-21T04:30:09;13.63;;;9.98;;
75689;SDS011;64303;53.118;9.044;2023-11-21T04:32:36;13.70;;;9.38;;
75689;SDS011;64303;53.118;9.044;2023-11-21T04:35:04;18.25;;;10.10;;
75689;SDS011;64303;53.118;9.044;2023-11-21T04:37:32;16.42;;;9.32;;
75689;SDS011;64303;53.118;9.044;2023-11-21T04:40:00;16.02;;;9.20;;
75689;SDS011;64303;53.118;9.044;2023-11-21T04:42:33;17.50;;;12.38;;
75689;SDS011;64303;53.118;9.044;2023-11-21T04:45:00;18.50;;;11.57;;
75689;SDS011;64303;53.118;9.044;2023-11-21T04:47:30;16.73;;;11.20;;
75689;SDS011;64303;53.118;9.044;2023-11-21T04:49:57;17.13;;;10.45;;
75689;SDS011;64303;53.118;9.044;2023-11-21T04:52:24;15.05;;;10.27;;
75689;SDS011;64303;53.118;9.044;2023-11-21T04:54:50;11.95;;;8.65;;
75689;SDS011;64303;53.118;9.044;2023-11-21T04:57:21;13.32;;;9.90;;
75689;SDS011;64303;53.118;9.044;2023-11-21T04:59:47;14.07;;;11.27;;
75689;SDS011;64303;53.118;9.044;2023-11-21T05:02:14;12.57;;;9.05;;
75689;SDS011;64303;53.118;9.044;2023-11-21T05:04:41;13.65;;;9.57;;
75689;SDS011;64303;53.118;9.044;2023-11-21T05:09:35;13.65;;;11.93;;
75689;SDS011;64303;53.118;9.044;2023-11-21T05:12:03;15.07;;;10.15;;
75689;SDS011;64303;53.118;9.044;2023-11-21T05:14:31;12.98;;;9.40;;
75689;SDS011;64303;53.118;9.044;2023-11-21T05:16:58;15.10;;;10.68;;
75689;SDS011;64303;53.118;9.044;2023-11-21T05:19:26;13.70;;;9.48;;
75689;SDS011;64303;53.118;9.044;2023-11-21T05:21:54;17.45;;;8.95;;
75689;SDS011;64303;53.118;9.044;2023-11-21T05:24:20;12.43;;;9.23;;
75689;SDS011;64303;53.118;9.044;2023-11-21T05:26:47;11.65;;;9.70;;
75689;SDS011;64303;53.118;9.044;2023-11-21T05:29:14;11.88;;;7.78;;
75689;SDS011;64303;53.118;9.044;2023-11-21T05:31:42;12.40;;;10.88;;
75689;SDS011;64303;53.118;9.044;2023-11-21T05:34:09;10.00;;;9.10;;
75689;SDS011;64303;53.118;9.044;2023-11-21T05:36:35;13.02;;;10.43;;
75689;SDS011;64303;53.118;9.044;2023-11-21T05:39:02;11.25;;;9.07;;
75689;SDS011;64303;53.118;9.044;2023-11-21T05:41:29;11.30;;;8.23;;
75689;SDS011;64303;53.118;9.044;2023-11-21T05:43:56;11.07;;;9.15;;
75689;SDS011;64303;53.118;9.044;2023-11-21T05:46:23;12.63;;;9.38;;
75689;SDS011;64303;53.118;9.044;2023-11-21T05:48:51;12.98;;;10.50;;
75689;SDS011;64303;53.118;9.044;2023-11-21T05:53:44;14.40;;;9.10;;
75689;SDS011;64303;53.118;9.044;2023-11-21T05:56:12;10.57;;;7.88;;
75689;SDS011;64303;53.118;9.044;2023-11-21T05:58:38;11.75;;;9.00;;
75689;SDS011;64303;53.118;9.044;2023-11-21T06:01:06;11.38;;;9.15;;
75689;SDS011;64303;53.118;9.044;2023-11-21T06:03:34;13.88;;;10.15;;
75689;SDS011;64303;53.118;9.044;2023-11-21T06:06:03;11.27;;;8.95;;
75689;SDS011;64303;53.118;9.044;2023-11-21T06:08:30;12.30;;;10.05;;
75689;SDS011;64303;53.118;9.044;2023-11-21T06:10:57;13.85;;;8.32;;
75689;SDS011;64303;53.118;9.044;2023-11-21T06:13:23;11.77;;;8.93;;
75689;SDS011;64303;53.118;9.044;2023-11-21T06:15:50;12.20;;;9.60;;
75689;SDS011;64303;53.118;9.044;2023-11-21T06:18:17;12.38;;;10.40;;
75689;SDS011;64303;53.118;9.044;2023-11-21T06:20:45;13.23;;;10.32;;
75689;SDS011;64303;53.118;9.044;2023-11-21T06:23:13;12.60;;;10.77;;
75689;SDS011;64303;53.118;9.044;2023-11-21T06:25:40;11.63;;;8.10;;
75689;SDS011;64303;53.118;9.044;2023-11-21T06:28:07;13.73;;;9.38;;
75689;SDS011;64303;53.118;9.044;2023-11-21T06:30:34;9.75;;;7.85;;
75689;SDS011;64303;53.118;9.044;2023-11-21T06:33:00;13.88;;;10.23;;
75689;SDS011;64303;53.118;9.044;2023-11-21T06:35:27;15.15;;;11.88;;
75689;SDS011;64303;53.118;9.044;2023-11-21T06:37:57;11.07;;;8.85;;
75689;SDS011;64303;53.118;9.044;2023-11-21T06:40:26;14.63;;;9.98;;
75689;SDS011;64303;53.118;9.044;2023-11-21T06:42:52;16.27;;;9.52;;
75689;SDS011;64303;53.118;9.044;2023-11-21T06:45:18;15.00;;;10.02;;
75689;SDS011;64303;53.118;9.044;2023-11-21T06:47:46;12.32;;;8.60;;
75689;SDS011;64303;53.118;9.044;2023-11-21T06:50:13;16.70;;;10.85;;
75689;SDS011;64303;53.118;9.044;2023-11-21T06:52:40;12.05;;;9.35;;
75689;SDS011;64303;53.118;9.044;2023-11-21T06:55:08;15.05;;;10.07;;
75689;SDS011;64303;53.118;9.044;2023-11-21T06:57:37;12.90;;;9.05;;
75689;SDS011;64303;53.118;9.044;2023-11-21T07:00:05;12.45;;;10.40;;
75689;SDS011;64303;53.118;9.044;2023-11-21T07:02:34;13.35;;;10.50;;
75689;SDS011;64303;53.118;9.044;2023-11-21T07:05:01;14.75;;;11.48;;
75689;SDS011;64303;53.118;9.044;2023-11-21T07:07:28;13.15;;;10.18;;
75689;SDS011;64303;53.118;9.044;2023-11-21T07:09:55;11.57;;;9.57;;
75689;SDS011;64303;53.118;9.044;2023-11-21T07:12:21;14.07;;;10.48;;
75689;SDS011;64303;53.118;9.044;2023-11-21T07:14:52;17.45;;;13.35;;
75689;SDS011;64303;53.118;9.044;2023-11-21T07:17:19;14.30;;;10.68;;
75689;SDS011;64303;53.118;9.044;2023-11-21T07:19:48;16.55;;;12.15;;
75689;SDS011;64303;53.118;9.044;2023-11-21T07:22:15;14.27;;;9.63;;
75689;SDS011;64303;53.118;9.044;2023-11-21T07:24:48;13.35;;;10.10;;
75689;SDS011;64303;53.118;9.044;2023-11-21T07:27:15;14.32;;;10.77;;
75689;SDS011;64303;53.118;9.044;2023-11-21T07:29:42;14.98;;;9.95;;
75689;SDS011;64303;53.118;9.044;2023-11-21T07:32:10;14.68;;;11.05;;
75689;SDS011;64303;53.118;9.044;2023-11-21T07:34:38;13.05;;;11.05;;
75689;SDS011;64303;53.118;9.044;2023-11-21T07:37:05;14.18;;;10.23;;
75689;SDS011;64303;53.118;9.044;2023-11-21T07:39:32;15.55;;;11.45;;
75689;SDS011;64303;53.118;9.044;2023-11-21T07:41:58;18.80;;;13.70;;
75689;SDS011;64303;53.118;9.044;2023-11-21T07:44:25;14.43;;;11.02;;
75689;SDS011;64303;53.118;9.044;2023-11-21T07:46:52;14.02;;;11.57;;
75689;SDS011;64303;53.118;9.044;2023-11-21T07:49:24;13.70;;;9.20;;
75689;SDS011;64303;53.118;9.044;2023-11-21T07:51:51;13.90;;;10.95;;
75689;SDS011;64303;53.118;9.044;2023-11-21T07:54:18;17.08;;;11.55;;
75689;SDS011;64303;53.118;9.044;2023-11-21T07:56:46;13.27;;;11.60;;
75689;SDS011;64303;53.118;9.044;2023-11-21T07:59:13;13.50;;;9.02;;
75689;SDS011;64303;53.118;9.044;2023-11-21T08:01:40;12.68;;;9.52;;
75689;SDS011;64303;53.118;9.044;2023-11-21T08:04:08;15.55;;;10.15;;
75689;SDS011;64303;53.118;9.044;2023-11-21T08:06:36;14.98;;;11.15;;
75689;SDS011;64303;53.118;9.044;2023-11-21T08:09:03;11.68;;;9.50;;
75689;SDS011;64303;53.118;9.044;2023-11-21T08:11:31;12.50;;;10.27;;
75689;SDS011;64303;53.118;9.044;2023-11-21T08:13:58;17.50;;;11.88;;
75689;SDS011;64303;53.118;9.044;2023-11-21T08:16:25;17.05;;;11.50;;
75689;SDS011;64303;53.118;9.044;2023-11-21T08:18:52;13.27;;;10.20;;
75689;SDS011;64303;53.118;9.044;2023-11-21T08:21:19;15.10;;;11.88;;
75689;SDS011;64303;53.118;9.044;2023-11-21T08:23:48;16.05;;;11.98;;
75689;SDS011;64303;53.118;9.044;2023-11-21T08:26:18;14.65;;;10.93;;
75689;SDS011;64303;53.118;9.044;2023-11-21T08:28:45;12.98;;;9.02;;
75689;SDS011;64303;53.118;9.044;2023-11-21T08:31:12;17.63;;;12.55;;
75689;SDS011;64303;53.118;9.044;2023-11-21T08:33:39;14.85;;;11.20;;
75689;SDS011;64303;53.118;9.044;2023-11-21T08:36:06;15.07;;;11.88;;
75689;SDS011;64303;53.118;9.044;2023-11-21T08:38:34;14.55;;;10.05;;
75689;SDS011;64303;53.118;9.044;2023-11-21T08:41:04;12.75;;;11.45;;
75689;SDS011;64303;53.118;9.044;2023-11-21T08:43:33;14.05;;;11.32;;
75689;SDS011;64303;53.118;9.044;2023-11-21T08:46:00;12.93;;;10.00;;
75689;SDS011;64303;53.118;9.044;2023-11-21T08:48:27;12.32;;;9.07;;
75689;SDS011;64303;53.118;9.044;2023-11-21T08:50:55;15.00;;;11.40;;
75689;SDS011;64303;53.118;9.044;2023-11-21T08:53:21;14.07;;;10.13;;
75689;SDS011;64303;53.118;9.044;2023-11-21T08:55:48;14.88;;;10.57;;
75689;SDS011;64303;53.118;9.044;2023-11-21T08:58:16;13.10;;;10.95;;
75689;SDS011;64303;53.118;9.044;2023-11-21T09:00:43;12.00;;;7.32;;
75689;SDS011;64303;53.118;9.044;2023-11-21T09:03:11;16.15;;;9.43;;
75689;SDS011;64303;53.118;9.044;2023-11-21T09:05:38;16.80;;;12.18;;
75689;SDS011;64303;53.118;9.044;2023-11-21T09:08:06;14.45;;;11.45;;
75689;SDS011;64303;53.118;9.044;2023-11-21T09:10:33;12.73;;;9.05;;
75689;SDS011;64303;53.118;9.044;2023-11-21T09:13:01;14.93;;;12.35;;
75689;SDS011;64303;53.118;9.044;2023-11-21T09:15:29;13.82;;;10.13;;
75689;SDS011;64303;53.118;9.044;2023-11-21T09:17:56;12.60;;;9.15;;
75689;SDS011;64303;53.118;9.044;2023-11-21T09:20:22;13.63;;;10.95;;
75689;SDS011;64303;53.118;9.044;2023-11-21T09:22:49;11.82;;;9.57;;
75689;SDS011;64303;53.118;9.044;2023-11-21T09:25:16;16.70;;;14.18;;
75689;SDS011;64303;53.118;9.044;2023-11-21T09:27:44;14.07;;;12.68;;
75689;SDS011;64303;53.118;9.044;2023-11-21T09:30:11;13.52;;;7.95;;
75689;SDS011;64303;53.118;9.044;2023-11-21T09:32:41;12.00;;;9.93;;
75689;SDS011;64303;53.118;9.044;2023-11-21T09:35:10;11.55;;;8.98;;
75689;SDS011;64303;53.118;9.044;2023-11-21T09:37:39;13.05;;;11.45;;
75689;SDS011;64303;53.118;9.044;2023-11-21T09:40:06;15.52;;;11.18;;
75689;SDS011;64303;53.118;9.044;2023-11-21T09:42:40;12.85;;;10.35;;
75689;SDS011;64303;53.118;9.044;2023-11-21T09:45:13;12.18;;;10.52;;
75689;SDS011;64303;53.118;9.044;2023-11-21T09:47:46;12.13;;;8.43;;
75689;SDS011;64303;53.118;9.044;2023-11-21T09:50:14;11.98;;;9.07;;
75689;SDS011;64303;53.118;9.044;2023-11-21T09:52:45;13.93;;;10.05;;
75689;SDS011;64303;53.118;9.044;2023-11-21T09:55:16;11.45;;;8.38;;
75689;SDS011;64303;53.118;9.044;2023-11-21T09:57:47;12.82;;;9.65;;
75689;SDS011;64303;53.118;9.044;2023-11-21T10:00:14;11.45;;;9.93;;
75689;SDS011;64303;53.118;9.044;2023-11-21T10:02:47;13.57;;;9.68;;
75689;SDS011;64303;53.118;9.044;2023-11-21T10:05:15;10.98;;;9.20;;
75689;SDS011;64303;53.118;9.044;2023-11-21T10:07:43;13.15;;;11.07;;
75689;SDS011;64303;53.118;9.044;2023-11-21T10:10:10;11.15;;;9.65;;
75689;SDS011;64303;53.118;9.044;2023-11-21T10:12:37;14.25;;;12.85;;
75689;SDS011;64303;53.118;9.044;2023-11-21T10:15:06;11.95;;;9.65;;
75689;SDS011;64303;53.118;9.044;2023-11-21T10:17:34;13.88;;;10.73;;
75689;SDS011;64303;53.118;9.044;2023-11-21T10:20:09;10.93;;;8.90;;
75689;SDS011;64303;53.118;9.044;2023-11-21T10:22:39;13.13;;;10.27;;
75689;SDS011;64303;53.118;9.044;2023-11-21T10:25:07;12.43;;;9.65;;
75689;SDS011;64303;53.118;9.044;2023-11-21T10:27:34;11.13;;;8.05;;
75689;SDS011;64303;53.118;9.044;2023-11-21T10:30:01;11.20;;;9.52;;
75689;SDS011;64303;53.118;9.044;2023-11-21T10:32:29;10.98;;;8.82;;
75689;SDS011;64303;53.118;9.044;2023-11-21T10:34:57;13.65;;;9.43;;
75689;SDS011;64303;53.118;9.044;2023-11-21T10:37:27;11.98;;;9.77;;
75689;SDS011;64303;53.118;9.044;2023-11-21T10:39:56;13.05;;;10.95;;
75689;SDS011;64303;53.118;9.044;2023-11-21T10:42:23;11.95;;;8.52;;
75689;SDS011;64303;53.118;9.044;2023-11-21T10:44:51;10.13;;;8.63;;
75689;SDS011;64303;53.118;9.044;2023-11-21T10:47:18;14.43;;;8.95;;
75689;SDS011;64303;53.118;9.044;2023-11-21T10:49:48;11.82;;;10.40;;
75689;SDS011;64303;53.118;9.044;2023-11-21T10:52:15;12.75;;;10.35;;
75689;SDS011;64303;53.118;9.044;2023-11-21T10:54:44;11.10;;;9.65;;
75689;SDS011;64303;53.118;9.044;2023-11-21T10:57:13;13.98;;;10.60;;
75689;SDS011;64303;53.118;9.044;2023-11-21T10:59:43;10.85;;;9.77;;
75689;SDS011;64303;53.118;9.044;2023-11-21T11:02:15;15.20;;;8.02;;
75689;SDS011;64303;53.118;9.044;2023-11-21T11:04:48;9.60;;;7.70;;
75689;SDS011;64303;53.118;9.044;2023-11-21T11:07:15;12.02;;;9.75;;
75689;SDS011;64303;53.118;9.044;2023-11-21T11:09:43;11.70;;;9.95;;
75689;SDS011;64303;53.118;9.044;2023-11-21T11:12:12;9.43;;;7.80;;
75689;SDS011;64303;53.118;9.044;2023-11-21T11:14:42;10.52;;;8.88;;
75689;SDS011;64303;53.118;9.044;2023-11-21T11:17:10;8.93;;;7.95;;
75689;SDS011;64303;53.118;9.044;2023-11-21T11:19:37;11.60;;;8.90;;
75689;SDS011;64303;53.118;9.044;2023-11-21T11:22:07;10.60;;;9.50;;
75689;SDS011;64303;53.118;9.044;2023-11-21T11:24:43;12.40;;;8.27;;
75689;SDS011;64303;53.118;9.044;2023-11-21T11:27:23;10.65;;;7.18;;
75689;SDS011;64303;53.118;9.044;2023-11-21T11:29:57;9.30;;;8.05;;
75689;SDS011;64303;53.118;9.044;2023-11-21T11:32:35;11.05;;;9.10;;
75689;SDS011;64303;53.118;9.044;2023-11-21T11:35:07;10.40;;;8.90;;
75689;SDS011;64303;53.118;9.044;2023-11-21T11:37:42;9.73;;;8.05;;
75689;SDS011;64303;53.118;9.044;2023-11-21T11:40:12;8.73;;;7.32;;
75689;SDS011;64303;53.118;9.044;2023-11-21T11:42:39;11.88;;;10.65;;
75689;SDS011;64303;53.118;9.044;2023-11-21T11:45:17;10.52;;;9.45;;
75689;SDS011;64303;53.118;9.044;2023-11-21T11:47:44;9.43;;;7.95;;
75689;SDS011;64303;53.118;9.044;2023-11-21T11:50:13;9.00;;;7.68;;
75689;SDS011;64303;53.118;9.044;2023-11-21T11:52:42;10.52;;;9.02;;
75689;SDS011;64303;53.118;9.044;2023-11-21T11:55:10;9.85;;;8.85;;
75689;SDS011;64303;53.118;9.044;2023-11-21T11:57:39;8.50;;;7.25;;
75689;SDS011;64303;53.118;9.044;2023-11-21T12:00:10;8.10;;;7.18;;
75689;SDS011;64303;53.118;9.044;2023-11-21T12:02:44;10.50;;;9.00;;
75689;SDS011;64303;53.118;9.044;2023-11-21T12:05:13;8.85;;;7.95;;
75689;SDS011;64303;53.118;9.044;2023-11-21T12:07:44;7.40;;;6.50;;
75689;SDS011;64303;53.118;9.044;2023-11-21T12:10:16;10.68;;;8.02;;
75689;SDS011;64303;53.118;9.044;2023-11-21T12:12:48;9.52;;;8.57;;
75689;SDS011;64303;53.118;9.044;2023-11-21T12:15:15;11.38;;;9.38;;
75689;SDS011;64303;53.118;9.044;2023-11-21T12:17:43;11.45;;;7.25;;
75689;SDS011;64303;53.118;9.044;2023-11-21T12:20:10;9.20;;;8.35;;
75689;SDS011;64303;53.118;9.044;2023-11-21T12:22:44;9.73;;;8.90;;
75689;SDS011;64303;53.118;9.044;2023-11-21T12:25:15;10.13;;;7.15;;
75689;SDS011;64303;53.118;9.044;2023-11-21T12:27:44;11.48;;;10.38;;
75689;SDS011;64303;53.118;9.044;2023-11-21T12:30:12;8.75;;;7.93;;
75689;SDS011;64303;53.118;9.044;2023-11-21T12:32:41;7.57;;;6.63;;
75689;SDS011;64303;53.118;9.044;2023-11-21T12:35:08;9.70;;;7.88;;
75689;SDS011;64303;53.118;9.044;2023-11-21T12:37:36;8.45;;;5.47;;
75689;SDS011;64303;53.118;9.044;2023-11-21T12:40:05;7.28;;;6.57;;
75689;SDS011;64303;53.118;9.044;2023-11-21T12:42:38;8.32;;;7.60;;
75689;SDS011;64303;53.118;9.044;2023-11-21T12:45:09;7.13;;;6.60;;
75689;SDS011;64303;53.118;9.044;2023-11-21T12:47:41;7.28;;;6.57;;
75689;SDS011;64303;53.118;9.044;2023-11-21T12:50:08;6.47;;;5.50;;
75689;SDS011;64303;53.118;9.044;2023-11-21T12:52:40;5.97;;;5.38;;
75689;SDS011;64303;53.118;9.044;2023-11-21T12:55:09;6.15;;;5.57;;
75689;SDS011;64303;53.118;9.044;2023-11-21T12:57:42;4.53;;;4.10;;
75689;SDS011;64303;53.118;9.044;2023-11-21T13:00:10;6.22;;;4.90;;
75689;SDS011;64303;53.118;9.044;2023-11-21T13:02:41;6.05;;;5.45;;
75689;SDS011;64303;53.118;9.044;2023-11-21T13:05:08;7.28;;;6.57;;
75689;SDS011;64303;53.118;9.044;2023-11-21T13:07:43;7.03;;;6.45;;
75689;SDS011;64303;53.118;9.044;2023-11-21T13:10:12;6.95;;;6.28;;
75689;SDS011;64303;53.118;9.044;2023-11-21T13:12:43;5.72;;;5.22;;
75689;SDS011;64303;53.118;9.044;2023-11-21T13:15:13;6.32;;;5.80;;
75689;SDS011;64303;53.118;9.044;2023-11-21T13:17:41;7.47;;;6.82;;
75689;SDS011;64303;53.118;9.044;2023-11-21T13:20:08;5.72;;;5.30;;
75689;SDS011;64303;53.118;9.044;2023-11-21T13:22:44;6.63;;;5.90;;
75689;SDS011;64303;53.118;9.044;2023-11-21T13:25:12;5.75;;;5.22;;
75689;SDS011;64303;53.118;9.044;2023-11-21T13:27:40;6.95;;;5.53;;
75689;SDS011;64303;53.118;9.044;2023-11-21T13:30:10;6.50;;;6.00;;
75689;SDS011;64303;53.118;9.044;2023-11-21T13:32:40;7.00;;;6.40;;
75689;SDS011;64303;53.118;9.044;2023-11-21T13:35:07;5.97;;;5.45;;
75689;SDS011;64303;53.118;9.044;2023-11-21T13:37:40;6.85;;;6.35;;
75689;SDS011;64303;53.118;9.044;2023-11-21T13:40:08;6.80;;;6.20;;
75689;SDS011;64303;53.118;9.044;2023-11-21T13:42:39;6.30;;;5.80;;
75689;SDS011;64303;53.118;9.044;2023-11-21T13:45:06;6.32;;;5.80;;
75689;SDS011;64303;53.118;9.044;2023-11-21T13:47:35;6.10;;;5.57;;
75689;SDS011;64303;53.118;9.044;2023-11-21T13:50:03;5.78;;;5.25;;
75689;SDS011;64303;53.118;9.044;2023-11-21T13:52:42;6.05;;;5.45;;
75689;SDS011;64303;53.118;9.044;2023-11-21T13:55:09;6.05;;;5.55;;
75689;SDS011;64303;53.118;9.044;2023-11-21T13:57:40;5.95;;;5.10;;
75689;SDS011;64303;53.118;9.044;2023-11-21T14:00:09;6.07;;;5.47;;
75689;SDS011;64303;53.118;9.044;2023-11-21T14:02:58;6.18;;;5.65;;
75689;SDS011;64303;53.118;9.044;2023-11-21T14:05:26;7.55;;;7.03;;
75689;SDS011;64303;53.118;9.044;2023-11-21T14:07:54;8.70;;;8.00;;
75689;SDS011;64303;53.118;9.044;2023-11-21T14:10:27;6.90;;;6.30;;
75689;SDS011;64303;53.118;9.044;2023-11-21T14:13:02;7.15;;;6.57;;
75689;SDS011;64303;53.118;9.044;2023-11-21T14:15:31;6.85;;;6.25;;
75689;SDS011;64303;53.118;9.044;2023-11-21T14:17:59;6.03;;;5.43;;
75689;SDS011;64303;53.118;9.044;2023-11-21T14:20:30;6.38;;;5.38;;
75689;SDS011;64303;53.118;9.044;2023-11-21T14:22:58;6.13;;;5.63;;
75689;SDS011;64303;53.118;9.044;2023-11-21T14:25:26;7.18;;;6.57;;
75689;SDS011;64303;53.118;9.044;2023-11-21T14:27:53;6.55;;;5.65;;
75689;SDS011;64303;53.118;9.044;2023-11-21T14:30:20;9.40;;;4.53;;
75689;SDS011;64303;53.118;9.044;2023-11-21T14:32:47;5.65;;;5.15;;
75689;SDS011;64303;53.118;9.044;2023-11-21T14:35:16;4.97;;;4.57;;
75689;SDS011;64303;53.118;9.044;2023-11-21T14:40:10;7.72;;;7.22;;
75689;SDS011;64303;53.118;9.044;2023-11-21T14:42:41;6.47;;;5.97;;
75689;SDS011;64303;53.118;9.044;2023-11-21T14:45:09;6.85;;;6.32;;
75689;SDS011;64303;53.118;9.044;2023-11-21T14:47:38;9.35;;;8.65;;
75689;SDS011;64303;53.118;9.044;2023-11-21T14:50:09;7.53;;;5.70;;
75689;SDS011;64303;53.118;9.044;2023-11-21T14:53:06;5.35;;;4.93;;
75689;SDS011;64303;53.118;9.044;2023-11-21T14:55:32;8.00;;;7.38;;
75689;SDS011;64303;53.118;9.044;2023-11-21T14:58:08;6.18;;;5.43;;
75689;SDS011;64303;53.118;9.044;2023-11-21T15:00:38;6.10;;;5.57;;